Time;durP1;ratioP1;P1;durP2;ratioP2;P2;SDS_P1;SDS_P2;PMS_P1;PMS_P2;Temp;Humidity;BMP_temperature;BMP_pressure;BME280_temperature;BME280_humidity;BME280_pressure;Samples;Min_cycle;Max_cycle;Signal;HPM_P1;HPM_P2
2021/07/12 00:01:59;;;;;;;6.22;2.50;;;;;;;;;;6249078;23;20032;-80
2021/07/12 00:04:25;;;;;;;2.72;1.80;;;;;;;;;;6249023;23;19996;-79
2021/07/12 00:06:52;;;;;;;2.78;1.63;;;;;;;;;;6248500;23;20011;-79
2021/07/12 00:09:18;;;;;;;3.05;1.88;;;;;;;;;;6248089;23;20058;-77
2021/07/12 00:11:44;;;;;;;4.05;2.17;;;;;;;;;;6221216;23;20008;-77
2021/07/12 00:14:11;;;;;;;3.72;1.85;;;;;;;;;;6248321;23;20330;-77
2021/07/12 00:16:37;;;;;;;2.30;1.60;;;;;;;;;;6221401;23;20004;-77
2021/07/12 00:19:04;;;;;;;4.40;1.90;;;;;;;;;;6248096;23;20031;-76
2021/07/12 00:21:30;;;;;;;3.28;2.05;;;;;;;;;;6247901;23;20004;-76
2021/07/12 00:23:57;;;;;;;3.40;2.00;;;;;;;;;;6247927;23;20421;-77
2021/07/12 00:26:23;;;;;;;5.15;2.00;;;;;;;;;;6248842;23;20050;-76
2021/07/12 00:28:50;;;;;;;5.80;1.70;;;;;;;;;;6247921;23;20019;-77
2021/07/12 00:31:16;;;;;;;3.88;1.50;;;;;;;;;;6221042;23;20011;-76
2021/07/12 00:33:43;;;;;;;3.17;1.48;;;;;;;;;;6224632;23;20024;-77
2021/07/12 00:36:09;;;;;;;5.30;2.33;;;;;;;;;;6248267;23;20075;-77
2021/07/12 00:38:36;;;;;;;8.40;1.60;;;;;;;;;;6246191;23;20388;-76
2021/07/12 00:41:02;;;;;;;3.72;1.40;;;;;;;;;;6246457;23;20414;-77
2021/07/12 00:43:28;;;;;;;7.65;1.40;;;;;;;;;;6246186;23;20008;-76
2021/07/12 00:45:55;;;;;;;4.35;1.45;;;;;;;;;;6247880;23;20000;-77
2021/07/12 00:48:21;;;;;;;10.45;1.50;;;;;;;;;;6247637;23;20004;-73
2021/07/12 00:50:48;;;;;;;3.90;1.67;;;;;;;;;;6246099;23;20010;-75
2021/07/12 00:53:14;;;;;;;3.75;1.75;;;;;;;;;;6247671;23;19996;-78
2021/07/12 00:55:50;;;;;;;2.40;1.30;;;;;;;;;;6248467;23;20000;-77
2021/07/12 00:58:18;;;;;;;2.53;1.40;;;;;;;;;;6248604;23;20310;-79
2021/07/12 01:00:46;;;;;;;3.15;1.60;;;;;;;;;;6246412;23;20008;-77
2021/07/12 01:03:13;;;;;;;2.83;1.42;;;;;;;;;;6247811;23;20452;-78
2021/07/12 01:05:40;;;;;;;3.25;1.58;;;;;;;;;;6247671;23;20035;-78
2021/07/12 01:08:06;;;;;;;3.67;1.60;;;;;;;;;;6247966;23;20008;-77
2021/07/12 01:10:33;;;;;;;4.25;1.75;;;;;;;;;;6246248;23;20039;-78
2021/07/12 01:13:13;;;;;;;5.28;1.77;;;;;;;;;;6247825;23;20058;-78
2021/07/12 01:15:58;;;;;;;5.72;1.98;;;;;;;;;;6246063;23;20425;-77
2021/07/12 01:18:44;;;;;;;3.80;2.05;;;;;;;;;;6246126;23;20015;-78
2021/07/12 01:21:16;;;;;;;3.80;2.17;;;;;;;;;;6247612;23;20050;-79
2021/07/12 01:23:42;;;;;;;6.65;2.08;;;;;;;;;;6246226;23;20015;-79
2021/07/12 01:26:14;;;;;;;14.65;2.72;;;;;;;;;;6247755;23;20000;-78
2021/07/12 01:29:07;;;;;;;3.20;2.00;;;;;;;;;;6245985;23;20374;-78
2021/07/12 01:31:53;;;;;;;4.67;2.10;;;;;;;;;;6202049;22;20429;-75
2021/07/12 01:34:40;;;;;;;3.80;2.33;;;;;;;;;;6245375;23;20020;-80
2021/07/12 01:37:09;;;;;;;5.18;2.47;;;;;;;;;;6220810;23;20004;-79
2021/07/12 01:39:40;;;;;;;4.65;2.72;;;;;;;;;;6247520;23;20418;-77
2021/07/12 01:42:08;;;;;;;4.32;2.30;;;;;;;;;;6247824;23;20004;-77
2021/07/12 01:44:54;;;;;;;6.55;2.85;;;;;;;;;;6247314;23;20075;-76
2021/07/12 01:47:34;;;;;;;6.90;2.75;;;;;;;;;;6245581;23;20015;-77
2021/07/12 01:50:04;;;;;;;3.70;2.38;;;;;;;;;;6246125;23;20016;-77
2021/07/12 01:52:39;;;;;;;3.13;2.20;;;;;;;;;;6245713;23;20000;-78
2021/07/12 01:55:08;;;;;;;4.90;2.95;;;;;;;;;;6245728;23;20008;-77
2021/07/12 01:57:37;;;;;;;6.68;2.92;;;;;;;;;;6245585;23;20039;-78
2021/07/12 02:00:08;;;;;;;5.32;2.90;;;;;;;;;;6245602;23;20035;-76
2021/07/12 02:02:34;;;;;;;5.05;2.50;;;;;;;;;;6245368;23;20008;-76
2021/07/12 02:05:03;;;;;;;5.75;3.08;;;;;;;;;;6245543;23;20442;-76
2021/07/12 02:07:31;;;;;;;4.15;2.67;;;;;;;;;;6245345;23;20053;-76
2021/07/12 02:10:00;;;;;;;4.88;3.03;;;;;;;;;;6248283;23;20031;-76
2021/07/12 02:12:27;;;;;;;7.45;3.45;;;;;;;;;;6247067;23;19997;-77
2021/07/12 02:14:54;;;;;;;6.53;4.00;;;;;;;;;;6246931;23;20004;-77
2021/07/12 02:17:21;;;;;;;7.82;4.68;;;;;;;;;;6246871;23;20004;-78
2021/07/12 02:19:48;;;;;;;10.55;4.43;;;;;;;;;;6245412;23;20453;-77
2021/07/12 02:22:15;;;;;;;8.18;4.65;;;;;;;;;;6245949;23;20007;-79
2021/07/12 02:24:41;;;;;;;6.43;4.13;;;;;;;;;;6245712;23;20004;-75
2021/07/12 02:27:07;;;;;;;9.45;4.38;;;;;;;;;;6245602;23;20008;-75
2021/07/12 02:29:34;;;;;;;6.25;4.10;;;;;;;;;;6244912;23;20043;-77
2021/07/12 02:32:01;;;;;;;5.72;3.70;;;;;;;;;;6247195;23;20000;-79
2021/07/12 02:34:27;;;;;;;7.25;3.60;;;;;;;;;;6246891;23;20008;-79
2021/07/12 02:36:54;;;;;;;5.50;3.22;;;;;;;;;;6247069;23;20004;-78
2021/07/12 02:39:21;;;;;;;6.78;3.42;;;;;;;;;;6247536;23;20020;-78
2021/07/12 02:41:48;;;;;;;5.85;3.15;;;;;;;;;;6247271;23;20004;-79
2021/07/12 02:44:16;;;;;;;4.60;2.80;;;;;;;;;;6247556;23;20544;-79
2021/07/12 02:46:42;;;;;;;6.03;3.03;;;;;;;;;;6246971;23;20004;-79
2021/07/12 02:49:09;;;;;;;5.93;3.10;;;;;;;;;;6247718;23;20095;-78
2021/07/12 02:51:42;;;;;;;5.50;3.35;;;;;;;;;;6246427;23;20004;-79
2021/07/12 02:54:09;;;;;;;6.00;3.53;;;;;;;;;;6246893;23;20050;-78
2021/07/12 02:56:35;;;;;;;5.30;3.40;;;;;;;;;;6246652;23;20004;-78
2021/07/12 02:59:02;;;;;;;4.10;2.70;;;;;;;;;;6220071;23;20039;-79
2021/07/12 03:01:28;;;;;;;4.30;2.55;;;;;;;;;;6247075;23;20019;-79
2021/07/12 03:03:55;;;;;;;5.05;2.80;;;;;;;;;;6246915;23;20321;-78
2021/07/12 03:06:26;;;;;;;5.78;2.67;;;;;;;;;;6247449;23;20007;-79
2021/07/12 03:09:08;;;;;;;4.57;3.03;;;;;;;;;;6247555;23;20015;-79
2021/07/12 03:11:38;;;;;;;6.40;3.55;;;;;;;;;;6219907;23;20000;-79
2021/07/12 03:14:19;;;;;;;5.38;3.10;;;;;;;;;;6246897;23;20000;-75
2021/07/12 03:16:46;;;;;;;5.57;3.67;;;;;;;;;;6220031;23;20008;-78
2021/07/12 03:19:41;;;;;;;7.20;4.10;;;;;;;;;;6246543;23;20066;-79
2021/07/12 03:22:10;;;;;;;8.48;5.35;;;;;;;;;;6214724;23;20006;-78
2021/07/12 03:24:37;;;;;;;7.85;5.00;;;;;;;;;;6219724;23;20015;-78
2021/07/12 03:27:05;;;;;;;7.70;4.85;;;;;;;;;;6219726;23;20090;-78
2021/07/12 03:29:31;;;;;;;9.07;5.85;;;;;;;;;;6219607;23;20019;-72
2021/07/12 03:31:59;;;;;;;8.77;5.78;;;;;;;;;;6219670;23;20007;-76
2021/07/12 03:34:27;;;;;;;10.48;5.65;;;;;;;;;;6246585;23;20012;-79
2021/07/12 03:36:54;;;;;;;8.45;5.55;;;;;;;;;;6219821;23;20004;-78
2021/07/12 03:39:22;;;;;;;7.38;4.93;;;;;;;;;;6247092;23;20004;-76
2021/07/12 03:41:48;;;;;;;8.57;4.97;;;;;;;;;;6219172;23;20341;-77
2021/07/12 03:44:16;;;;;;;12.23;5.88;;;;;;;;;;6219586;23;20008;-79
2021/07/12 03:46:43;;;;;;;7.28;5.22;;;;;;;;;;6246793;23;20331;-80
2021/07/12 03:49:13;;;;;;;9.45;5.22;;;;;;;;;;6246700;23;20082;-74
2021/07/12 03:51:40;;;;;;;8.95;5.75;;;;;;;;;;6220112;23;19996;-77
2021/07/12 03:54:06;;;;;;;8.68;5.63;;;;;;;;;;6219674;23;20008;-78
2021/07/12 03:56:33;;;;;;;8.30;4.95;;;;;;;;;;6246386;23;20006;-71
2021/07/12 03:58:59;;;;;;;7.97;4.47;;;;;;;;;;6220293;23;20004;-78
2021/07/12 04:01:26;;;;;;;7.72;4.80;;;;;;;;;;6246461;23;20046;-79
2021/07/12 04:03:53;;;;;;;7.70;5.03;;;;;;;;;;6246735;23;20003;-79
2021/07/12 04:06:20;;;;;;;9.98;5.43;;;;;;;;;;6246207;23;20000;-78
2021/07/12 04:08:47;;;;;;;9.43;4.43;;;;;;;;;;6246424;23;20039;-77
2021/07/12 04:11:14;;;;;;;6.68;4.43;;;;;;;;;;6246167;23;20012;-77
2021/07/12 04:13:41;;;;;;;7.28;4.68;;;;;;;;;;6246831;23;20007;-77
2021/07/12 04:16:07;;;;;;;7.68;4.60;;;;;;;;;;6246573;23;20004;-79
2021/07/12 04:18:34;;;;;;;6.50;4.38;;;;;;;;;;6246232;23;20012;-77
2021/07/12 04:21:00;;;;;;;8.57;5.63;;;;;;;;;;6219315;23;20058;-78
2021/07/12 04:23:27;;;;;;;9.13;5.25;;;;;;;;;;6246331;23;20079;-77
2021/07/12 04:25:53;;;;;;;8.75;5.03;;;;;;;;;;6247329;23;20019;-76
2021/07/12 04:28:20;;;;;;;7.55;4.80;;;;;;;;;;6220887;23;20017;-78
2021/07/12 04:30:46;;;;;;;7.68;4.50;;;;;;;;;;6248081;23;20050;-78
2021/07/12 04:33:12;;;;;;;7.50;5.28;;;;;;;;;;6221146;23;20012;-76
2021/07/12 04:35:39;;;;;;;7.55;5.03;;;;;;;;;;6245427;23;20024;-77
2021/07/12 04:38:05;;;;;;;8.18;5.22;;;;;;;;;;6247829;23;20047;-77
2021/07/12 04:40:31;;;;;;;6.72;4.40;;;;;;;;;;6247689;23;20384;-77
2021/07/12 04:42:57;;;;;;;8.63;5.30;;;;;;;;;;6247934;23;20008;-80
2021/07/12 04:45:27;;;;;;;8.02;5.38;;;;;;;;;;6246215;23;20421;-75
2021/07/12 04:47:53;;;;;;;9.05;5.75;;;;;;;;;;6246640;23;20016;-77
2021/07/12 04:50:19;;;;;;;10.15;5.40;;;;;;;;;;6248195;23;20011;-79
2021/07/12 04:52:46;;;;;;;8.73;5.80;;;;;;;;;;6248004;23;20003;-80
2021/07/12 04:55:13;;;;;;;10.27;5.45;;;;;;;;;;6248856;23;20031;-80
2021/07/12 04:57:39;;;;;;;13.63;6.05;;;;;;;;;;6247610;23;20015;-83
2021/07/12 05:00:06;;;;;;;9.07;5.95;;;;;;;;;;6246688;23;20004;-79
2021/07/12 05:02:32;;;;;;;11.18;5.38;;;;;;;;;;6247174;23;20039;-83
2021/07/12 05:04:58;;;;;;;7.28;4.70;;;;;;;;;;6246827;23;20004;-81
2021/07/12 05:07:25;;;;;;;6.22;4.25;;;;;;;;;;6249360;23;20322;-77
2021/07/12 05:09:51;;;;;;;6.72;3.92;;;;;;;;;;6247002;23;20016;-74
2021/07/12 05:12:19;;;;;;;6.93;2.95;;;;;;;;;;6248486;23;20034;-81
2021/07/12 05:14:46;;;;;;;6.50;2.65;;;;;;;;;;6246462;23;20008;-82
2021/07/12 05:17:12;;;;;;;7.50;2.45;;;;;;;;;;6248765;23;20016;-82
2021/07/12 05:19:39;;;;;;;6.95;2.78;;;;;;;;;;6248607;23;20019;-82
2021/07/12 05:22:06;;;;;;;4.60;3.03;;;;;;;;;;6248730;23;20307;-81
2021/07/12 05:24:32;;;;;;;3.97;2.67;;;;;;;;;;6248719;23;20014;-83
2021/07/12 05:26:58;;;;;;;4.68;3.30;;;;;;;;;;6247223;23;20039;-80
2021/07/12 05:29:24;;;;;;;4.13;3.10;;;;;;;;;;6247550;23;20015;-82
2021/07/12 05:31:50;;;;;;;7.03;3.17;;;;;;;;;;6248838;23;20008;-83
2021/07/12 05:34:16;;;;;;;7.90;3.03;;;;;;;;;;6248209;23;20040;-83
2021/07/12 05:36:44;;;;;;;3.63;2.88;;;;;;;;;;6221557;23;20008;-76
2021/07/12 05:39:10;;;;;;;7.43;2.80;;;;;;;;;;6220496;23;20008;-82
2021/07/12 05:41:36;;;;;;;5.15;2.47;;;;;;;;;;6248153;23;20307;-78
2021/07/12 05:44:02;;;;;;;3.95;2.60;;;;;;;;;;6247402;23;19997;-74
2021/07/12 05:46:28;;;;;;;3.33;2.28;;;;;;;;;;6221459;23;20008;-80
2021/07/12 05:48:55;;;;;;;4.78;2.30;;;;;;;;;;6247736;23;20325;-81
2021/07/12 05:51:21;;;;;;;4.72;2.13;;;;;;;;;;6220429;23;20410;-83
2021/07/12 05:53:47;;;;;;;3.95;1.90;;;;;;;;;;6248224;23;20008;-83
2021/07/12 05:56:13;;;;;;;3.55;2.08;;;;;;;;;;6248478;23;20011;-80
2021/07/12 05:58:40;;;;;;;4.97;2.60;;;;;;;;;;6247773;23;19996;-82
2021/07/12 06:01:06;;;;;;;4.60;2.13;;;;;;;;;;6248195;23;20004;-83
2021/07/12 06:03:32;;;;;;;3.15;2.10;;;;;;;;;;6248334;23;20004;-82
2021/07/12 06:05:59;;;;;;;5.63;2.40;;;;;;;;;;6221791;23;20091;-81
2021/07/12 06:08:25;;;;;;;4.70;2.33;;;;;;;;;;6247133;23;20039;-75
2021/07/12 06:10:51;;;;;;;4.47;2.30;;;;;;;;;;6247143;23;20050;-74
2021/07/12 06:13:18;;;;;;;6.07;2.03;;;;;;;;;;6219983;23;20418;-75
2021/07/12 06:15:44;;;;;;;2.45;1.60;;;;;;;;;;6220012;23;20091;-76
2021/07/12 06:18:11;;;;;;;2.65;1.90;;;;;;;;;;6246684;23;20008;-77
2021/07/12 06:20:38;;;;;;;3.38;1.80;;;;;;;;;;6247163;23;20004;-77
2021/07/12 06:23:04;;;;;;;3.88;1.65;;;;;;;;;;6246710;23;20050;-75
2021/07/12 06:25:30;;;;;;;3.20;1.63;;;;;;;;;;6246414;23;20023;-77
2021/07/12 06:27:57;;;;;;;1.65;1.27;;;;;;;;;;6246489;23;20016;-72
2021/07/12 06:30:23;;;;;;;2.40;1.48;;;;;;;;;;6220138;23;20000;-77
2021/07/12 06:32:49;;;;;;;2.85;1.73;;;;;;;;;;6219815;23;20020;-76
2021/07/12 06:35:15;;;;;;;3.83;1.98;;;;;;;;;;6239167;23;20073;-77
2021/07/12 06:37:43;;;;;;;2.63;1.73;;;;;;;;;;6247929;22;20078;-74
2021/07/12 06:40:10;;;;;;;3.20;2.00;;;;;;;;;;6246616;23;20000;-77
2021/07/12 06:42:36;;;;;;;2.83;1.90;;;;;;;;;;6246436;23;20432;-76
2021/07/12 06:45:03;;;;;;;2.80;2.03;;;;;;;;;;6245067;23;20007;-77
2021/07/12 06:47:29;;;;;;;3.75;2.42;;;;;;;;;;6245076;23;20444;-77
2021/07/12 06:49:55;;;;;;;2.65;1.92;;;;;;;;;;6244463;23;20047;-77
2021/07/12 06:52:22;;;;;;;3.28;2.00;;;;;;;;;;6245006;23;20004;-75
2021/07/12 06:54:48;;;;;;;2.40;1.52;;;;;;;;;;6244892;23;20397;-77
2021/07/12 06:57:15;;;;;;;3.53;1.85;;;;;;;;;;6247164;23;20074;-79
2021/07/12 06:59:42;;;;;;;4.05;1.60;;;;;;;;;;6246402;23;20079;-78
2021/07/12 07:02:09;;;;;;;2.65;1.70;;;;;;;;;;6244347;23;20004;-79
2021/07/12 07:04:35;;;;;;;3.45;1.85;;;;;;;;;;6245382;23;20315;-78
2021/07/12 07:07:01;;;;;;;2.97;1.90;;;;;;;;;;6245045;23;20085;-79
2021/07/12 07:09:28;;;;;;;2.47;1.67;;;;;;;;;;6246352;23;20008;-75
2021/07/12 07:11:54;;;;;;;3.22;1.98;;;;;;;;;;6246618;23;20434;-79
2021/07/12 07:14:20;;;;;;;2.83;1.92;;;;;;;;;;6245073;23;20035;-79
2021/07/12 07:16:47;;;;;;;3.10;1.80;;;;;;;;;;6246879;23;20050;-78
2021/07/12 07:19:13;;;;;;;3.88;1.85;;;;;;;;;;6246738;23;20073;-78
2021/07/12 07:21:39;;;;;;;3.00;1.92;;;;;;;;;;6244784;23;20377;-72
2021/07/12 07:24:05;;;;;;;3.97;2.30;;;;;;;;;;6244612;23;20015;-76
2021/07/12 07:26:32;;;;;;;2.97;1.98;;;;;;;;;;6244724;23;20036;-74
2021/07/12 07:28:58;;;;;;;5.15;2.10;;;;;;;;;;6244601;23;20020;-76
2021/07/12 07:31:24;;;;;;;4.45;2.33;;;;;;;;;;6244727;23;20003;-75
2021/07/12 07:33:51;;;;;;;3.13;1.98;;;;;;;;;;6244406;23;20389;-72
2021/07/12 07:36:17;;;;;;;5.43;2.08;;;;;;;;;;6219524;23;20008;-75
2021/07/12 07:38:44;;;;;;;3.97;2.30;;;;;;;;;;6246125;23;20004;-76
2021/07/12 07:41:10;;;;;;;3.85;2.33;;;;;;;;;;6244506;23;20004;-76
2021/07/12 07:43:36;;;;;;;4.90;2.20;;;;;;;;;;6246176;23;20050;-77
2021/07/12 07:46:03;;;;;;;3.42;2.15;;;;;;;;;;6244759;23;20042;-77
2021/07/12 07:48:29;;;;;;;4.18;2.10;;;;;;;;;;6219550;23;20034;-78
2021/07/12 07:50:56;;;;;;;2.80;1.88;;;;;;;;;;6246281;23;20004;-77
2021/07/12 07:53:22;;;;;;;3.72;2.20;;;;;;;;;;6246321;23;20007;-77
2021/07/12 07:55:48;;;;;;;3.22;1.83;;;;;;;;;;6246844;23;20503;-76
2021/07/12 07:58:15;;;;;;;2.90;1.80;;;;;;;;;;6246973;23;20075;-76
2021/07/12 08:00:41;;;;;;;3.97;2.05;;;;;;;;;;6246369;23;19996;-74
2021/07/12 08:03:07;;;;;;;2.45;1.70;;;;;;;;;;6246489;23;20024;-76
2021/07/12 08:05:34;;;;;;;4.13;1.80;;;;;;;;;;6248194;23;20148;-77
2021/07/12 08:08:00;;;;;;;3.50;2.10;;;;;;;;;;6248009;23;20008;-78
2021/07/12 08:10:27;;;;;;;3.05;1.60;;;;;;;;;;6248124;23;20050;-77
2021/07/12 08:12:53;;;;;;;3.10;1.67;;;;;;;;;;6248430;23;20000;-78
2021/07/12 08:15:20;;;;;;;2.55;1.90;;;;;;;;;;6248786;23;20022;-78
2021/07/12 08:17:47;;;;;;;2.60;1.85;;;;;;;;;;6246625;23;20000;-77
2021/07/12 08:20:14;;;;;;;3.42;1.90;;;;;;;;;;6248114;23;20030;-76
2021/07/12 08:22:40;;;;;;;2.53;1.80;;;;;;;;;;6246385;23;20004;-76
2021/07/12 08:25:07;;;;;;;4.15;1.75;;;;;;;;;;6246371;23;20011;-77
2021/07/12 08:27:34;;;;;;;2.80;1.42;;;;;;;;;;6246456;23;20087;-76
2021/07/12 08:30:01;;;;;;;2.70;1.88;;;;;;;;;;6247724;23;20008;-73
2021/07/12 08:32:27;;;;;;;4.82;1.67;;;;;;;;;;6221389;23;20090;-79
2021/07/12 08:34:53;;;;;;;2.92;1.52;;;;;;;;;;6247868;23;20087;-79
2021/07/12 08:37:20;;;;;;;2.55;1.73;;;;;;;;;;6247784;23;20004;-78
2021/07/12 08:39:46;;;;;;;3.15;1.80;;;;;;;;;;6247774;23;20050;-78
2021/07/12 08:42:13;;;;;;;2.35;1.63;;;;;;;;;;6247865;23;19997;-78
2021/07/12 08:44:39;;;;;;;2.38;1.73;;;;;;;;;;6221004;23;20008;-78
2021/07/12 08:47:07;;;;;;;4.07;1.98;;;;;;;;;;6221103;23;20425;-78
2021/07/12 08:49:34;;;;;;;3.67;2.17;;;;;;;;;;6248289;23;20008;-78
2021/07/12 08:52:01;;;;;;;5.13;2.33;;;;;;;;;;6247695;23;20075;-77
2021/07/12 08:54:28;;;;;;;3.22;2.47;;;;;;;;;;6247907;23;20302;-78
2021/07/12 08:56:55;;;;;;;3.03;2.00;;;;;;;;;;6220859;23;20424;-78
2021/07/12 08:59:32;;;;;;;3.20;2.15;;;;;;;;;;6248133;23;20071;-78
2021/07/12 09:02:01;;;;;;;3.25;2.28;;;;;;;;;;6220896;23;20050;-78
2021/07/12 09:04:28;;;;;;;3.38;2.30;;;;;;;;;;6220880;23;20083;-76
2021/07/12 09:07:01;;;;;;;3.05;2.00;;;;;;;;;;6247716;23;20065;-77
2021/07/12 09:09:27;;;;;;;3.17;2.42;;;;;;;;;;6248443;23;20050;-78
2021/07/12 09:11:53;;;;;;;7.25;2.70;;;;;;;;;;6247314;23;20015;-78
2021/07/12 09:14:20;;;;;;;3.90;2.60;;;;;;;;;;6220491;23;20087;-78
2021/07/12 09:16:47;;;;;;;4.40;2.67;;;;;;;;;;6247664;23;20000;-78
2021/07/12 09:19:17;;;;;;;3.50;2.50;;;;;;;;;;6221614;23;20004;-78
2021/07/12 09:21:47;;;;;;;5.10;3.10;;;;;;;;;;6220658;23;20000;-79
2021/07/12 09:24:19;;;;;;;3.85;2.28;;;;;;;;;;6221266;23;20433;-79
2021/07/12 09:26:56;;;;;;;5.45;2.60;;;;;;;;;;6220735;23;20083;-79
2021/07/12 09:29:24;;;;;;;3.83;2.25;;;;;;;;;;6220586;23;20383;-78
2021/07/12 09:31:51;;;;;;;3.80;2.50;;;;;;;;;;6220526;23;20000;-78
2021/07/12 09:34:18;;;;;;;3.40;2.50;;;;;;;;;;6247123;23;20018;-79
2021/07/12 09:36:45;;;;;;;4.43;2.35;;;;;;;;;;6220514;23;20011;-79
2021/07/12 09:39:18;;;;;;;5.60;3.00;;;;;;;;;;6220574;23;20004;-73
2021/07/12 09:41:47;;;;;;;4.10;2.65;;;;;;;;;;6221551;23;20008;-77
2021/07/12 09:44:13;;;;;;;4.30;2.75;;;;;;;;;;6220103;23;20004;-80
2021/07/12 09:46:40;;;;;;;4.45;2.92;;;;;;;;;;6247974;23;20079;-79
2021/07/12 09:49:09;;;;;;;5.60;3.10;;;;;;;;;;6220298;23;20039;-76
2021/07/12 09:51:37;;;;;;;4.80;2.45;;;;;;;;;;6220194;23;20011;-80
2021/07/12 09:54:17;;;;;;;4.18;2.72;;;;;;;;;;6220249;23;20069;-73
2021/07/12 09:56:43;;;;;;;4.38;2.50;;;;;;;;;;6247108;23;20004;-73
2021/07/12 09:59:13;;;;;;;4.85;2.70;;;;;;;;;;6220119;23;20380;-76
2021/07/12 10:01:39;;;;;;;4.32;2.38;;;;;;;;;;6219896;23;20011;-75
2021/07/12 10:04:06;;;;;;;5.75;2.53;;;;;;;;;;6219789;23;20460;-69
2021/07/12 10:06:33;;;;;;;3.72;2.42;;;;;;;;;;6246661;23;20322;-76
2021/07/12 10:09:00;;;;;;;5.97;2.50;;;;;;;;;;6246738;23;20012;-75
2021/07/12 10:11:26;;;;;;;3.75;2.30;;;;;;;;;;6246836;23;20001;-74
2021/07/12 10:13:53;;;;;;;5.95;2.50;;;;;;;;;;6246751;23;20011;-68
2021/07/12 10:16:20;;;;;;;3.58;2.17;;;;;;;;;;6247069;23;20078;-68
2021/07/12 10:18:46;;;;;;;4.13;2.58;;;;;;;;;;6246633;23;20071;-74
2021/07/12 10:21:13;;;;;;;4.80;2.75;;;;;;;;;;6247143;23;20083;-69
2021/07/12 10:23:39;;;;;;;4.30;2.90;;;;;;;;;;6246190;23;20430;-71
2021/07/12 10:26:05;;;;;;;5.03;2.70;;;;;;;;;;6246426;23;20004;-68
2021/07/12 10:28:43;;;;;;;7.25;3.00;;;;;;;;;;6219655;23;20393;-70
2021/07/12 10:31:19;;;;;;;3.67;2.40;;;;;;;;;;6246683;23;20332;-71
2021/07/12 10:33:45;;;;;;;4.55;2.63;;;;;;;;;;6219638;23;20012;-72
2021/07/12 10:36:11;;;;;;;4.10;2.38;;;;;;;;;;6246885;23;20004;-75
2021/07/12 10:38:37;;;;;;;4.57;2.58;;;;;;;;;;6247303;23;20058;-68
2021/07/12 10:41:22;;;;;;;3.58;2.60;;;;;;;;;;6246622;23;20000;-69
2021/07/12 10:43:50;;;;;;;3.55;2.63;;;;;;;;;;6245038;23;20010;-75
2021/07/12 10:46:28;;;;;;;4.80;2.72;;;;;;;;;;6245043;23;20000;-75
2021/07/12 10:48:55;;;;;;;4.88;2.47;;;;;;;;;;6244714;23;20016;-75
2021/07/12 10:51:27;;;;;;;4.85;2.40;;;;;;;;;;6245863;23;20000;-74
2021/07/12 10:53:57;;;;;;;3.58;2.28;;;;;;;;;;6246485;23;20028;-73
2021/07/12 10:56:24;;;;;;;3.92;2.35;;;;;;;;;;6245037;23;20036;-75
2021/07/12 10:58:50;;;;;;;4.28;2.75;;;;;;;;;;6244768;23;20004;-75
2021/07/12 11:01:17;;;;;;;4.40;2.65;;;;;;;;;;6244898;23;20008;-75
2021/07/12 11:03:45;;;;;;;3.58;2.60;;;;;;;;;;6247429;23;20051;-75
2021/07/12 11:06:12;;;;;;;4.63;2.53;;;;;;;;;;6246123;23;20004;-75
2021/07/12 11:08:42;;;;;;;3.22;2.30;;;;;;;;;;6245842;23;20008;-76
2021/07/12 11:11:09;;;;;;;3.75;2.40;;;;;;;;;;6246442;23;20003;-76
2021/07/12 11:13:54;;;;;;;4.35;2.80;;;;;;;;;;6247078;23;20004;-76
2021/07/12 11:16:24;;;;;;;4.40;2.40;;;;;;;;;;6244916;23;20315;-77
2021/07/12 11:18:53;;;;;;;8.23;2.92;;;;;;;;;;6246098;23;20035;-75
2021/07/12 11:21:32;;;;;;;4.25;2.80;;;;;;;;;;6246267;23;20008;-71
2021/07/12 11:24:07;;;;;;;3.65;2.55;;;;;;;;;;6244884;23;20006;-75
2021/07/12 11:26:34;;;;;;;4.43;2.70;;;;;;;;;;6244885;23;20012;-76
2021/07/12 11:29:03;;;;;;;4.32;2.75;;;;;;;;;;6244828;23;20426;-75
2021/07/12 11:31:38;;;;;;;3.45;2.55;;;;;;;;;;6244848;23;20008;-77
2021/07/12 11:34:06;;;;;;;4.07;2.50;;;;;;;;;;6244032;23;20151;-76
2021/07/12 11:36:32;;;;;;;5.72;2.42;;;;;;;;;;6245575;23;20055;-77
2021/07/12 11:38:58;;;;;;;4.10;2.70;;;;;;;;;;6246560;23;20472;-77
2021/07/12 11:41:24;;;;;;;5.05;2.67;;;;;;;;;;6246427;23;20095;-71
2021/07/12 11:44:09;;;;;;;4.10;2.53;;;;;;;;;;6247913;23;20004;-71
2021/07/12 11:46:36;;;;;;;3.90;2.83;;;;;;;;;;6245530;23;20380;-76
2021/07/12 11:49:21;;;;;;;5.55;2.65;;;;;;;;;;6248051;23;20008;-70
2021/07/12 11:51:54;;;;;;;5.55;2.80;;;;;;;;;;6248272;23;20001;-70
2021/07/12 11:54:24;;;;;;;3.45;2.58;;;;;;;;;;6248431;23;20030;-76
2021/07/12 11:56:54;;;;;;;4.10;2.80;;;;;;;;;;6246254;23;20384;-75
2021/07/12 11:59:28;;;;;;;3.60;2.50;;;;;;;;;;6248237;23;20000;-75
2021/07/12 12:02:04;;;;;;;3.58;2.15;;;;;;;;;;6248758;23;20008;-75
2021/07/12 12:04:42;;;;;;;3.50;2.45;;;;;;;;;;6247997;23;20011;-73
2021/07/12 12:07:22;;;;;;;3.72;2.50;;;;;;;;;;6248098;23;20011;-76
2021/07/12 12:09:49;;;;;;;5.68;3.20;;;;;;;;;;6248139;23;20012;-77
2021/07/12 12:12:19;;;;;;;3.95;2.53;;;;;;;;;;6248298;23;20055;-74
2021/07/12 12:14:46;;;;;;;3.70;2.58;;;;;;;;;;6247904;23;20075;-76
2021/07/12 12:17:13;;;;;;;3.92;2.40;;;;;;;;;;6246324;23;20000;-77
2021/07/12 12:19:39;;;;;;;4.70;2.70;;;;;;;;;;6246150;23;20438;-74
2021/07/12 12:22:05;;;;;;;4.05;2.60;;;;;;;;;;6246299;23;20011;-76
2021/07/12 12:24:31;;;;;;;3.65;2.58;;;;;;;;;;6246800;23;20077;-74
2021/07/12 12:26:57;;;;;;;2.88;2.22;;;;;;;;;;6248065;23;20357;-69
2021/07/12 12:29:24;;;;;;;4.00;2.55;;;;;;;;;;6247479;23;20027;-72
2021/07/12 12:31:50;;;;;;;4.95;2.92;;;;;;;;;;6247640;23;20007;-69
2021/07/12 12:34:18;;;;;;;4.30;2.85;;;;;;;;;;6247402;23;20430;-75
2021/07/12 12:36:44;;;;;;;4.40;3.05;;;;;;;;;;6247751;23;20004;-73
2021/07/12 12:39:20;;;;;;;4.03;2.90;;;;;;;;;;6247596;23;20000;-73
2021/07/12 12:41:57;;;;;;;3.97;2.72;;;;;;;;;;6247593;23;20433;-75
2021/07/12 12:44:32;;;;;;;3.60;2.80;;;;;;;;;;6248039;23;20023;-73
2021/07/12 12:46:59;;;;;;;3.97;2.65;;;;;;;;;;6247877;23;20007;-76
2021/07/12 12:49:27;;;;;;;4.47;2.70;;;;;;;;;;6247439;23;20012;-74
2021/07/12 12:51:53;;;;;;;3.67;2.60;;;;;;;;;;6247549;23;20456;-75
2021/07/12 12:54:19;;;;;;;4.47;3.10;;;;;;;;;;6247524;23;20369;-76
2021/07/12 12:56:51;;;;;;;3.80;2.83;;;;;;;;;;6247456;23;19996;-74
2021/07/12 12:59:18;;;;;;;3.83;2.67;;;;;;;;;;6247765;23;20004;-75
2021/07/12 13:01:46;;;;;;;4.00;2.65;;;;;;;;;;6247362;23;20082;-73
2021/07/12 13:04:17;;;;;;;4.30;2.75;;;;;;;;;;6247496;23;20369;-76
2021/07/12 13:06:49;;;;;;;3.38;2.22;;;;;;;;;;6247453;23;20046;-77
2021/07/12 13:09:24;;;;;;;4.22;2.65;;;;;;;;;;6220626;23;20044;-77
2021/07/12 13:12:03;;;;;;;3.10;2.33;;;;;;;;;;6220713;23;20004;-75
2021/07/12 13:14:30;;;;;;;11.50;2.80;;;;;;;;;;6220542;23;20008;-77
2021/07/12 13:17:09;;;;;;;4.68;2.78;;;;;;;;;;6220664;23;20001;-79
2021/07/12 13:19:37;;;;;;;3.50;2.60;;;;;;;;;;6220606;23;20012;-77
2021/07/12 13:22:03;;;;;;;3.38;2.42;;;;;;;;;;6220625;23;20007;-76
2021/07/12 13:24:41;;;;;;;3.42;2.15;;;;;;;;;;6220536;23;20008;-77
2021/07/12 13:27:08;;;;;;;3.40;2.38;;;;;;;;;;6220626;23;20004;-76
2021/07/12 13:29:34;;;;;;;3.65;2.20;;;;;;;;;;6220902;23;20015;-69
2021/07/12 13:32:01;;;;;;;4.85;2.90;;;;;;;;;;6247476;23;20417;-80
2021/07/12 13:34:27;;;;;;;3.83;2.65;;;;;;;;;;6247711;23;20016;-77
2021/07/12 13:36:53;;;;;;;4.05;2.53;;;;;;;;;;6245982;23;20000;-71
2021/07/12 13:39:20;;;;;;;9.57;3.10;;;;;;;;;;6246701;23;20444;-77
2021/07/12 13:41:46;;;;;;;4.80;2.90;;;;;;;;;;6247134;23;20003;-78
2021/07/12 13:44:12;;;;;;;3.55;2.50;;;;;;;;;;6247885;23;20011;-76
2021/07/12 13:46:39;;;;;;;4.47;2.67;;;;;;;;;;6220281;23;20004;-84
2021/07/12 13:49:05;;;;;;;4.55;2.60;;;;;;;;;;6248550;23;20074;-81
2021/07/12 13:51:32;;;;;;;7.97;3.08;;;;;;;;;;6247691;23;20373;-77
2021/07/12 13:53:58;;;;;;;5.00;3.28;;;;;;;;;;6220834;23;20341;-81
2021/07/12 13:56:24;;;;;;;4.85;2.25;;;;;;;;;;6220535;23;20067;-81
2021/07/12 13:58:50;;;;;;;4.72;2.58;;;;;;;;;;6219608;23;20010;-81
2021/07/12 14:01:17;;;;;;;3.67;2.63;;;;;;;;;;6247413;23;20039;-82
2021/07/12 14:03:43;;;;;;;3.83;2.58;;;;;;;;;;6247208;23;20000;-82
2021/07/12 14:06:10;;;;;;;4.72;3.00;;;;;;;;;;6247338;23;20372;-83
2021/07/12 14:08:36;;;;;;;4.47;2.50;;;;;;;;;;6248040;23;20004;-82
2021/07/12 14:11:02;;;;;;;4.43;2.53;;;;;;;;;;6247605;23;20008;-83
2021/07/12 14:13:29;;;;;;;6.18;2.65;;;;;;;;;;6220763;23;20081;-82
2021/07/12 14:15:55;;;;;;;6.32;2.50;;;;;;;;;;6220914;23;20008;-84
2021/07/12 14:18:21;;;;;;;4.43;2.90;;;;;;;;;;6247716;23;20031;-83
2021/07/12 14:20:48;;;;;;;5.18;2.72;;;;;;;;;;6247125;23;20008;-83
2021/07/12 14:23:14;;;;;;;4.90;2.50;;;;;;;;;;6220561;23;20015;-80
2021/07/12 14:25:42;;;;;;;5.45;2.70;;;;;;;;;;6247194;23;20046;-86
2021/07/12 14:28:09;;;;;;;4.13;2.70;;;;;;;;;;6246551;23;20129;-77
2021/07/12 14:30:35;;;;;;;5.03;2.67;;;;;;;;;;6247802;23;20333;-85
2021/07/12 14:33:02;;;;;;;3.72;2.65;;;;;;;;;;6248543;23;20004;-82
2021/07/12 14:35:29;;;;;;;4.55;2.40;;;;;;;;;;6246713;23;20048;-83
2021/07/12 14:37:55;;;;;;;3.55;2.53;;;;;;;;;;6219997;23;20440;-83
2021/07/12 14:40:21;;;;;;;4.35;2.70;;;;;;;;;;6219585;23;20003;-84
2021/07/12 14:42:54;;;;;;;5.70;2.55;;;;;;;;;;6246960;23;20079;-73
2021/07/12 14:45:21;;;;;;;4.35;2.80;;;;;;;;;;6220474;23;20086;-84
2021/07/12 14:47:48;;;;;;;5.15;2.88;;;;;;;;;;6246890;23;20004;-87
2021/07/12 14:50:14;;;;;;;3.60;2.50;;;;;;;;;;6246407;23;20341;-83